Terminal Aerodrome Forecast
Issued by NWS

Home | Current Version | Previous Version | Text Only | Print | Product List | Glossary Off
Versions: 1 2 3 4 5 6 7 8 9 10 11 12 13 14

000
FTUS43 KBIS 021136
TAFMOT
TAF
KMOT 021136Z 0212/0312 30009KT P6SM SKC
     FM021600 32015G22KT P6SM SCT070
     FM030300 30007KT P6SM SKC=

USA.gov is the U.S. government's official web portal to all federal, state and local government web resources and services.